createdAt,value
2018-10-19T00:00:03.533Z,9.02
2018-10-19T00:02:32.080Z,9.20
2018-10-19T00:05:00.694Z,9.47
2018-10-19T00:07:29.200Z,9.39
2018-10-19T00:09:58.101Z,9.17
2018-10-19T00:12:26.648Z,9.54
2018-10-19T00:14:55.234Z,9.63
2018-10-19T00:17:23.849Z,9.62
2018-10-19T00:19:52.452Z,9.85
2018-10-19T00:22:20.991Z,9.87
2018-10-19T00:24:49.561Z,9.86
2018-10-19T00:27:18.126Z,10.05
2018-10-19T00:29:46.704Z,9.82
2018-10-19T00:32:15.248Z,9.85
2018-10-19T00:34:43.828Z,9.55
2018-10-19T00:37:12.363Z,9.28
2018-10-19T00:39:40.883Z,9.15
2018-10-19T00:42:09.457Z,8.93
2018-10-19T00:44:37.992Z,8.84
2018-10-19T00:47:06.628Z,9.09
2018-10-19T00:49:35.172Z,9.17
2018-10-19T00:52:03.756Z,9.20
2018-10-19T00:54:32.300Z,9.12
2018-10-19T00:57:00.921Z,8.85
2018-10-19T00:59:29.438Z,8.83
2018-10-19T01:01:58.029Z,8.64
2018-10-19T01:04:26.572Z,8.97
2018-10-19T01:06:55.137Z,9.53
2018-10-19T01:09:23.681Z,9.76
2018-10-19T01:11:52.273Z,9.74
2018-10-19T01:14:20.817Z,9.70
2018-10-19T01:16:49.385Z,9.71
2018-10-19T01:19:17.952Z,9.84
2018-10-19T01:21:46.528Z,10.01
2018-10-19T01:24:15.091Z,9.98
2018-10-19T01:26:43.676Z,9.62
2018-10-19T01:29:12.225Z,9.53
2018-10-19T01:31:41.604Z,9.28
2018-10-19T01:34:10.180Z,9.17
2018-10-19T01:36:43.373Z,8.65
2018-10-19T01:39:12.583Z,8.88
2018-10-19T01:41:41.708Z,9.27
2018-10-19T01:44:10.826Z,9.13
2018-10-19T01:46:43.516Z,9.02
2018-10-19T01:49:12.034Z,8.57
2018-10-19T01:51:40.594Z,8.71
2018-10-19T01:54:09.108Z,8.68
2018-10-19T01:56:37.665Z,8.66
2018-10-19T01:59:06.552Z,8.45
2018-10-19T02:01:35.100Z,8.61
2018-10-19T02:04:03.642Z,8.19
2018-10-19T02:06:32.414Z,8.23
2018-10-19T02:09:00.968Z,7.97
2018-10-19T02:11:29.633Z,8.24
2018-10-19T02:13:58.157Z,8.00
2018-10-19T02:16:26.736Z,7.92
2018-10-19T02:18:55.293Z,8.09
2018-10-19T02:21:23.833Z,8.46
2018-10-19T02:23:52.365Z,8.57
2018-10-19T02:26:20.933Z,8.64
2018-10-19T02:28:49.455Z,8.60
2018-10-19T02:31:18.014Z,8.57
2018-10-19T02:33:46.528Z,8.67
2018-10-19T02:36:15.044Z,8.50
2018-10-19T02:38:43.593Z,8.38
2018-10-19T02:41:12.198Z,8.56
2018-10-19T02:43:40.692Z,8.66
2018-10-19T02:46:09.213Z,8.60
2018-10-19T02:48:37.765Z,8.85
2018-10-19T02:51:06.333Z,8.73
2018-10-19T02:53:35.316Z,8.26
2018-10-19T02:56:03.839Z,8.17
2018-10-19T02:58:32.746Z,8.22
2018-10-19T03:01:01.263Z,8.23
2018-10-19T03:03:29.813Z,8.31
2018-10-19T03:05:58.329Z,8.19
2018-10-19T03:08:26.878Z,8.39
2018-10-19T03:10:55.409Z,8.47
2018-10-19T03:13:24.322Z,8.64
2018-10-19T03:15:52.839Z,8.65
2018-10-19T03:18:21.379Z,8.54
2018-10-19T03:20:50.040Z,8.37
2018-10-19T03:23:18.633Z,8.26
2018-10-19T03:25:47.183Z,8.29
2018-10-19T03:28:15.789Z,8.04
2018-10-19T03:30:44.417Z,7.55
2018-10-19T03:33:13.073Z,7.65
2018-10-19T03:35:41.628Z,7.55
2018-10-19T03:38:10.212Z,7.28
2018-10-19T03:40:39.007Z,7.85
2018-10-19T03:43:07.600Z,8.05
2018-10-19T03:45:36.449Z,8.04
2018-10-19T03:48:05.305Z,7.93
2018-10-19T03:50:33.881Z,8.06
2018-10-19T03:53:02.913Z,8.23
2018-10-19T03:55:31.453Z,8.08
2018-10-19T03:58:00.057Z,8.06
2018-10-19T04:00:28.616Z,8.03
2018-10-19T04:02:57.242Z,7.81
2018-10-19T04:05:26.132Z,7.70
2018-10-19T04:07:54.749Z,7.77
2018-10-19T04:10:23.397Z,7.71
2018-10-19T04:12:51.985Z,7.99
2018-10-19T04:15:20.557Z,7.90
2018-10-19T04:17:50.204Z,7.75
2018-10-19T04:20:19.234Z,7.70
2018-10-19T04:22:47.860Z,7.83
2018-10-19T04:25:17.131Z,8.08
2018-10-19T04:27:46.181Z,7.97
2018-10-19T04:30:14.713Z,7.91
2018-10-19T04:32:43.273Z,7.93
2018-10-19T04:35:12.424Z,8.02
2018-10-19T04:37:40.997Z,7.97
2018-10-19T04:40:18.705Z,7.84
2018-10-19T04:42:47.621Z,7.82
2018-10-19T04:45:16.842Z,7.67
2018-10-19T04:47:45.673Z,7.47
2018-10-19T04:50:14.273Z,7.63
2018-10-19T04:52:42.860Z,7.60
2018-10-19T04:55:24.906Z,7.15
2018-10-19T04:57:53.517Z,7.11
2018-10-19T05:00:22.784Z,7.81
2018-10-19T05:02:51.938Z,7.78
2018-10-19T05:05:21.027Z,7.78
2018-10-19T05:07:49.437Z,7.54
2018-10-19T05:10:18.037Z,7.55
2018-10-19T05:12:46.652Z,7.48
2018-10-19T05:15:15.250Z,7.54
2018-10-19T05:17:46.259Z,7.49
2018-10-19T05:20:15.168Z,7.57
2018-10-19T05:22:43.642Z,7.63
2018-10-19T05:25:13.383Z,7.59
2018-10-19T05:27:45.340Z,7.88
2018-10-19T05:30:14.240Z,7.97
2018-10-19T05:32:43.323Z,7.92
2018-10-19T05:35:11.955Z,8.16
2018-10-19T05:37:41.312Z,8.08
2018-10-19T05:40:11.048Z,8.21
2018-10-19T05:42:40.018Z,8.26
2018-10-19T05:45:09.957Z,8.16
2018-10-19T05:47:38.488Z,8.18
2018-10-19T05:50:08.397Z,8.30
2018-10-19T05:52:37.220Z,8.26
2018-10-19T05:55:05.853Z,8.26
2018-10-19T05:57:34.577Z,8.30
2018-10-19T06:00:03.428Z,8.24
2018-10-19T06:02:32.627Z,8.31
2018-10-19T06:05:01.229Z,8.36
2018-10-19T06:07:29.758Z,8.25
2018-10-19T06:09:58.429Z,8.25
2018-10-19T06:12:26.944Z,7.88
2018-10-19T06:14:55.560Z,7.72
2018-10-19T06:17:24.148Z,7.96
2018-10-19T06:19:52.768Z,8.25
2018-10-19T06:22:21.328Z,8.35
2018-10-19T06:24:49.924Z,8.50
2018-10-19T06:27:18.472Z,8.60
2018-10-19T06:29:47.114Z,8.61
2018-10-19T06:32:15.694Z,8.61
2018-10-19T06:34:44.322Z,8.53
2018-10-19T06:37:12.885Z,8.41
2018-10-19T06:39:41.436Z,8.33
2018-10-19T06:42:10.032Z,8.47
2018-10-19T06:44:38.597Z,8.56
2018-10-19T06:47:07.311Z,8.66
2018-10-19T06:49:35.955Z,8.56
2018-10-19T06:52:04.740Z,8.97
2018-10-19T06:54:33.401Z,9.14
2018-10-19T06:57:02.158Z,9.34
2018-10-19T06:59:31.849Z,9.39
2018-10-19T07:02:00.508Z,9.37
2018-10-19T07:04:29.209Z,9.41
2018-10-19T07:06:57.877Z,9.55
2018-10-19T07:09:26.672Z,9.48
2018-10-19T07:11:55.398Z,9.59
2018-10-19T07:14:24.141Z,9.49
2018-10-19T07:16:52.919Z,9.64
2018-10-19T07:19:21.686Z,9.72
2018-10-19T07:21:52.881Z,9.83
2018-10-19T07:24:21.680Z,9.87
2018-10-19T07:26:50.413Z,9.99
2018-10-19T07:29:19.289Z,10.15
2018-10-19T07:31:47.965Z,10.26
2018-10-19T07:34:16.666Z,10.33
2018-10-19T07:36:45.393Z,10.50
2018-10-19T07:39:14.117Z,10.63
2018-10-19T07:41:42.882Z,10.72
2018-10-19T07:44:11.794Z,10.72
2018-10-19T07:46:40.430Z,10.85
2018-10-19T07:49:09.125Z,10.94
2018-10-19T07:51:37.977Z,11.02
2018-10-19T07:54:06.700Z,11.07
2018-10-19T07:56:36.521Z,11.15
2018-10-19T07:59:06.424Z,11.23
2018-10-19T08:01:35.057Z,11.37
2018-10-19T08:04:03.864Z,11.36
2018-10-19T08:06:32.668Z,11.40
2018-10-19T08:09:02.009Z,11.52
2018-10-19T08:11:30.736Z,11.56
2018-10-19T08:13:59.511Z,11.70
2018-10-19T08:16:28.134Z,11.77
2018-10-19T08:18:56.815Z,11.86
2018-10-19T08:21:25.536Z,12.00
2018-10-19T08:23:54.284Z,12.10
2018-10-19T08:26:23.013Z,12.20
2018-10-19T08:28:51.684Z,12.30
2018-10-19T08:31:20.360Z,12.38
2018-10-19T08:33:49.060Z,12.51
2018-10-19T08:36:18.780Z,12.56
2018-10-19T08:38:47.452Z,12.66
2018-10-19T08:41:16.184Z,12.83
2018-10-19T08:43:44.805Z,12.87
2018-10-19T08:46:18.825Z,12.93
2018-10-19T08:48:47.481Z,12.99
2018-10-19T08:51:16.352Z,13.09
2018-10-19T08:53:45.359Z,13.15
2018-10-19T08:56:14.128Z,13.18
2018-10-19T08:58:42.846Z,13.26
2018-10-19T09:01:11.463Z,13.23
2018-10-19T09:03:40.208Z,13.29
2018-10-19T09:06:09.060Z,13.39
2018-10-19T09:08:37.766Z,13.43
2018-10-19T09:11:06.588Z,13.36
2018-10-19T09:13:35.329Z,13.50
2018-10-19T09:16:03.984Z,13.54
2018-10-19T09:18:32.678Z,13.58
2018-10-19T09:21:01.556Z,13.72
2018-10-19T09:23:30.300Z,13.90
2018-10-19T09:25:59.036Z,13.88
2018-10-19T09:28:27.708Z,13.93
2018-10-19T09:30:56.454Z,14.03
2018-10-19T09:33:25.109Z,14.04
2018-10-19T09:35:53.783Z,14.00
2018-10-19T09:38:22.509Z,14.05
2018-10-19T09:40:51.300Z,14.01
2018-10-19T09:43:19.941Z,14.02
2018-10-19T09:45:48.564Z,14.22
2018-10-19T09:48:17.377Z,14.12
2018-10-19T09:50:46.075Z,14.14
2018-10-19T09:53:14.841Z,14.27
2018-10-19T09:55:43.529Z,14.44
2018-10-19T09:58:12.304Z,14.36
2018-10-19T10:00:46.173Z,14.33
2018-10-19T10:03:14.921Z,14.35
2018-10-19T10:05:43.934Z,14.41
2018-10-19T10:08:12.574Z,14.48
2018-10-19T10:10:41.142Z,14.66
2018-10-19T10:13:09.802Z,14.67
2018-10-19T10:15:38.397Z,14.82
2018-10-19T10:18:07.019Z,14.75
2018-10-19T10:20:35.773Z,14.81
2018-10-19T10:23:04.644Z,14.85
2018-10-19T10:25:33.230Z,14.76
2018-10-19T10:28:01.862Z,15.00
2018-10-19T10:30:30.429Z,14.97
2018-10-19T10:32:59.040Z,15.05
2018-10-19T10:35:28.081Z,15.04
2018-10-19T10:37:56.684Z,15.11
2018-10-19T10:40:25.271Z,15.15
2018-10-19T10:42:53.876Z,15.17
2018-10-19T10:45:22.665Z,15.20
2018-10-19T10:47:51.244Z,15.21
2018-10-19T10:50:19.856Z,15.36
2018-10-19T10:52:48.693Z,15.39
2018-10-19T10:55:18.735Z,15.49
2018-10-19T10:57:48.129Z,15.60
2018-10-19T11:00:16.910Z,15.68
2018-10-19T11:02:47.070Z,15.73
2018-10-19T11:05:15.728Z,15.64
2018-10-19T11:07:46.003Z,15.61
2018-10-19T11:10:15.001Z,15.61
2018-10-19T11:12:44.401Z,15.66
2018-10-19T11:15:13.344Z,15.78
2018-10-19T11:17:41.940Z,15.91
2018-10-19T11:20:11.273Z,15.87
2018-10-19T11:22:39.904Z,15.98
2018-10-19T11:25:08.894Z,16.05
2018-10-19T11:27:37.696Z,16.17
2018-10-19T11:30:07.481Z,16.26
2018-10-19T11:32:36.125Z,16.35
2018-10-19T11:35:05.062Z,16.29
2018-10-19T11:37:34.595Z,16.34
2018-10-19T11:40:30.357Z,16.46
2018-10-19T11:42:58.983Z,16.73
2018-10-19T11:45:28.944Z,16.65
2018-10-19T11:47:57.513Z,16.82
2018-10-19T11:50:26.149Z,16.71
2018-10-19T11:52:55.185Z,16.89
2018-10-19T11:55:24.085Z,17.03
2018-10-19T11:57:53.084Z,16.96
2018-10-19T12:00:23.246Z,16.90
2018-10-19T12:02:52.373Z,17.15
2018-10-19T12:05:24.113Z,17.26
2018-10-19T12:07:52.888Z,17.25
2018-10-19T12:10:21.567Z,17.25
2018-10-19T12:12:51.489Z,17.32
2018-10-19T12:15:22.234Z,17.46
2018-10-19T12:17:51.912Z,17.69
2018-10-19T12:20:20.765Z,17.50
2018-10-19T12:22:51.545Z,17.67
2018-10-19T12:25:20.120Z,17.80
2018-10-19T12:27:49.671Z,17.65
2018-10-19T12:30:18.368Z,17.79
2018-10-19T12:32:46.968Z,17.95
2018-10-19T12:35:17.996Z,18.08
2018-10-19T12:37:47.336Z,18.02
2018-10-19T12:40:17.067Z,18.11
2018-10-19T12:42:45.624Z,18.01
2018-10-19T12:46:30.232Z,18.15
2018-10-19T12:48:58.782Z,18.37
2018-10-19T12:51:27.368Z,18.25
2018-10-19T12:53:56.138Z,18.43
2018-10-19T12:56:24.688Z,18.51
2018-10-19T12:58:54.105Z,18.32
2018-10-19T13:01:23.611Z,18.54
2018-10-19T13:03:52.556Z,18.69
2018-10-19T13:06:21.146Z,18.60
2018-10-19T13:08:54.148Z,18.47
2018-10-19T13:11:29.628Z,18.49
2018-10-19T13:14:03.563Z,18.57
2018-10-19T13:16:46.763Z,18.79
2018-10-19T13:22:05.317Z,18.97
2018-10-19T13:24:42.135Z,19.01
2018-10-19T13:27:19.329Z,19.09
2018-10-19T13:29:57.638Z,19.13
2018-10-19T13:32:37.343Z,19.13
2018-10-19T13:35:12.705Z,19.04
2018-10-19T13:37:48.392Z,19.07
2018-10-19T13:40:27.751Z,19.23
2018-10-19T13:43:09.377Z,19.37
2018-10-19T13:45:44.425Z,19.39
2018-10-19T13:48:20.164Z,19.37
2018-10-19T13:50:56.434Z,19.38
2018-10-19T13:53:31.560Z,19.32
2018-10-19T13:56:10.614Z,19.48
2018-10-19T13:58:46.772Z,19.66
2018-10-19T14:01:26.990Z,19.71
2018-10-19T14:04:04.228Z,19.67
2018-10-19T14:06:48.170Z,19.84
2018-10-19T14:09:29.196Z,19.89
2018-10-19T14:12:10.731Z,19.99
2018-10-19T14:14:46.055Z,20.05
2018-10-19T14:17:21.577Z,20.06
2018-10-19T14:20:01.013Z,20.18
2018-10-19T14:22:39.323Z,20.43
2018-10-19T14:25:17.360Z,20.66
2018-10-19T14:27:57.941Z,20.72
2018-10-19T14:30:30.365Z,20.85
2018-10-19T14:33:01.755Z,21.02
2018-10-19T14:35:30.535Z,21.20
2018-10-19T14:38:02.183Z,21.41
2018-10-19T14:40:33.551Z,21.28
2018-10-19T14:43:09.380Z,21.53
2018-10-19T14:45:39.053Z,21.60
2018-10-19T14:48:10.694Z,21.84
2018-10-19T14:50:44.407Z,21.82
2018-10-19T14:53:17.374Z,21.76
2018-10-19T14:55:47.756Z,21.55
2018-10-19T15:00:53.595Z,21.82
2018-10-19T15:03:26.615Z,21.85
2018-10-19T15:05:56.405Z,21.77
2018-10-19T15:08:26.953Z,21.46
2018-10-19T15:11:04.306Z,21.45
2018-10-19T15:13:42.769Z,21.34
2018-10-19T15:16:18.473Z,21.07
2018-10-19T15:18:54.131Z,21.06
2018-10-19T15:21:28.805Z,20.62
2018-10-19T15:24:04.608Z,20.49
2018-10-19T15:26:39.363Z,20.44
2018-10-19T15:29:16.657Z,20.08
2018-10-19T15:31:50.595Z,20.02
2018-10-19T15:34:28.437Z,19.97
2018-10-19T15:37:02.635Z,19.74
2018-10-19T15:39:39.602Z,19.60
2018-10-19T15:42:15.036Z,19.60
2018-10-19T15:44:48.916Z,19.50
2018-10-19T15:47:28.032Z,19.42
2018-10-19T15:50:05.220Z,19.20
2018-10-19T15:52:45.273Z,19.16
2018-10-19T15:55:20.997Z,18.96
2018-10-19T15:57:55.479Z,18.81
2018-10-19T16:00:38.760Z,18.76
2018-10-19T16:03:14.219Z,18.69
2018-10-19T16:05:52.900Z,18.38
2018-10-19T16:08:34.125Z,18.33
2018-10-19T16:11:09.154Z,18.03
2018-10-19T16:13:43.077Z,17.71
2018-10-19T16:16:11.719Z,17.68
2018-10-19T16:18:40.289Z,17.61
2018-10-19T16:21:08.912Z,17.62
2018-10-19T16:23:37.577Z,17.45
2018-10-19T16:26:06.234Z,17.24
2018-10-19T16:28:34.927Z,17.16
2018-10-19T16:31:03.421Z,17.03
2018-10-19T16:33:32.026Z,16.81
2018-10-19T16:36:00.870Z,16.42
2018-10-19T16:38:29.439Z,16.25
2018-10-19T16:40:57.992Z,16.23
2018-10-19T16:43:26.601Z,16.06
2018-10-19T16:45:55.208Z,16.00
2018-10-19T16:48:23.821Z,15.84
2018-10-19T16:50:52.398Z,15.63
2018-10-19T16:53:21.001Z,15.40
2018-10-19T16:55:51.372Z,15.36
2018-10-19T16:58:22.949Z,15.44
2018-10-19T17:00:52.769Z,15.32
2018-10-19T17:03:22.608Z,15.21
2018-10-19T17:05:51.236Z,14.90
2018-10-19T17:08:19.842Z,14.93
2018-10-19T17:10:48.417Z,15.00
2018-10-19T17:13:17.830Z,14.59
2018-10-19T17:15:46.396Z,14.51
2018-10-19T17:18:15.125Z,14.45
2018-10-19T17:20:43.730Z,14.31
2018-10-19T17:23:12.300Z,13.94
2018-10-19T17:25:40.905Z,13.41
2018-10-19T17:28:09.489Z,13.59
2018-10-19T17:30:39.742Z,13.63
2018-10-19T17:33:08.338Z,13.58
2018-10-19T17:35:37.079Z,13.35
2018-10-19T17:38:06.165Z,13.59
2018-10-19T17:40:34.745Z,13.76
2018-10-19T17:43:03.347Z,13.86
2018-10-19T17:45:31.929Z,13.81
2018-10-19T17:48:00.523Z,13.34
2018-10-19T17:50:29.538Z,13.23
2018-10-19T17:52:58.163Z,13.30
2018-10-19T17:55:26.713Z,13.15
2018-10-19T17:57:55.278Z,12.83
2018-10-19T18:00:23.872Z,12.76
2018-10-19T18:02:52.467Z,12.59
2018-10-19T18:05:21.096Z,12.80
2018-10-19T18:07:50.680Z,12.31
2018-10-19T18:10:19.473Z,12.66
2018-10-19T18:12:53.106Z,12.80
2018-10-19T18:15:26.870Z,13.08
2018-10-19T18:17:58.050Z,12.95
2018-10-19T18:20:26.737Z,12.35
2018-10-19T18:22:56.381Z,11.75
2018-10-19T18:25:25.011Z,11.71
2018-10-19T18:27:53.583Z,11.82
2018-10-19T18:30:22.181Z,11.89
2018-10-19T18:32:50.743Z,11.53
2018-10-19T18:35:19.456Z,11.56
2018-10-19T18:37:47.985Z,11.46
2018-10-19T18:40:16.574Z,11.60
2018-10-19T18:42:45.137Z,11.65
2018-10-19T18:45:13.750Z,11.50
2018-10-19T18:47:43.922Z,11.59
2018-10-19T18:50:12.558Z,11.50
2018-10-19T18:52:41.177Z,11.62
2018-10-19T18:55:09.845Z,11.80
2018-10-19T18:57:38.416Z,11.84
2018-10-19T19:00:09.133Z,11.38
2018-10-19T19:02:37.985Z,10.98
2018-10-19T19:05:10.155Z,11.29
2018-10-19T19:07:39.055Z,11.58
2018-10-19T19:10:13.029Z,11.67
2018-10-19T19:13:10.651Z,11.37
2018-10-19T19:18:50.363Z,11.48
2018-10-19T19:21:36.603Z,11.22
2018-10-19T19:25:14.216Z,10.93
2018-10-19T19:27:53.013Z,10.47
2018-10-19T19:30:30.382Z,10.52
2018-10-19T19:33:11.242Z,10.47
2018-10-19T19:35:48.300Z,10.86
2018-10-19T19:38:21.992Z,11.18
2018-10-19T19:41:00.331Z,11.20
2018-10-19T19:43:33.741Z,11.37
2018-10-19T19:46:07.731Z,11.08
2018-10-19T19:48:46.939Z,11.06
2018-10-19T19:51:23.486Z,11.00
2018-10-19T19:53:55.903Z,11.13
2018-10-19T19:56:24.597Z,10.90
2018-10-19T19:58:53.160Z,10.96
2018-10-19T20:01:21.713Z,10.64
2018-10-19T20:03:50.259Z,10.86
2018-10-19T20:06:19.467Z,10.55
2018-10-19T20:08:48.817Z,10.38
2018-10-19T20:11:17.389Z,10.79
2018-10-19T20:13:45.929Z,10.32
2018-10-19T20:16:14.710Z,10.55
2018-10-19T20:18:44.795Z,10.38
2018-10-19T20:21:13.497Z,10.27
2018-10-19T20:23:42.077Z,10.21
2018-10-19T20:26:10.682Z,10.04
2018-10-19T20:28:39.601Z,10.17
2018-10-19T20:31:08.194Z,10.15
2018-10-19T20:33:38.552Z,9.99
2018-10-19T20:36:07.318Z,9.92
2018-10-19T20:38:35.933Z,9.82
2018-10-19T20:41:04.741Z,10.03
2018-10-19T20:43:33.264Z,10.08
2018-10-19T20:46:08.478Z,10.30
2018-10-19T20:48:41.342Z,9.95
2018-10-19T20:51:13.300Z,9.97
2018-10-19T20:53:49.306Z,10.44
2018-10-19T20:56:23.102Z,10.59
2018-10-19T20:58:55.188Z,10.64
2018-10-19T21:01:27.813Z,10.48
2018-10-19T21:03:57.961Z,10.41
2018-10-19T21:06:28.552Z,10.32
2018-10-19T21:08:58.524Z,9.84
2018-10-19T21:11:29.881Z,10.11
2018-10-19T21:14:01.280Z,10.03
2018-10-19T21:16:37.319Z,10.01
2018-10-19T21:19:10.460Z,9.19
2018-10-19T21:21:41.668Z,8.84
2018-10-19T21:24:15.591Z,9.06
2018-10-19T21:26:44.196Z,9.27
2018-10-19T21:29:17.640Z,9.42
2018-10-19T21:31:48.682Z,9.23
2018-10-19T21:34:40.361Z,9.13
2018-10-19T21:37:16.177Z,9.58
2018-10-19T21:39:53.498Z,9.79
2018-10-19T21:42:26.731Z,9.98
2018-10-19T21:45:09.384Z,10.14
2018-10-19T21:47:41.853Z,10.16
2018-10-19T21:50:11.625Z,10.22
2018-10-19T21:52:41.333Z,10.08
2018-10-19T21:55:13.389Z,10.05
2018-10-19T21:57:49.048Z,10.23
2018-10-19T22:00:19.265Z,9.99
2018-10-19T22:02:48.964Z,9.92
2018-10-19T22:05:18.576Z,9.71
2018-10-19T22:07:48.111Z,9.65
2018-10-19T22:10:18.899Z,9.12
2018-10-19T22:12:48.468Z,9.31
2018-10-19T22:15:17.744Z,9.69
2018-10-19T22:17:47.250Z,9.87
2018-10-19T22:20:16.792Z,9.52
2018-10-19T22:22:46.856Z,9.38
2018-10-19T22:25:17.060Z,9.18
2018-10-19T22:27:46.652Z,9.16
2018-10-19T22:30:16.056Z,9.21
2018-10-19T22:32:45.816Z,9.14
2018-10-19T22:35:14.437Z,9.14
2018-10-19T22:37:43.017Z,9.26
2018-10-19T22:40:11.595Z,8.85
2018-10-19T22:42:40.188Z,8.92
2018-10-19T22:45:08.778Z,8.83
2018-10-19T22:47:37.388Z,9.05
2018-10-19T22:50:05.996Z,8.78
2018-10-19T22:52:34.977Z,9.14
2018-10-19T22:55:03.943Z,8.82
2018-10-19T22:57:32.541Z,9.16
2018-10-19T23:00:01.121Z,9.25
2018-10-19T23:02:29.743Z,8.87
2018-10-19T23:04:58.394Z,8.89
2018-10-19T23:07:27.281Z,8.50
2018-10-19T23:09:55.902Z,8.45
2018-10-19T23:12:24.469Z,8.53
2018-10-19T23:14:53.297Z,8.58
2018-10-19T23:17:21.855Z,8.55
2018-10-19T23:19:50.476Z,8.67
2018-10-19T23:22:19.054Z,8.71
2018-10-19T23:24:47.637Z,8.70
2018-10-19T23:27:16.188Z,8.94
2018-10-19T23:29:44.785Z,8.95
2018-10-19T23:32:13.344Z,8.46
2018-10-19T23:34:48.608Z,8.63
2018-10-19T23:37:17.169Z,8.63
2018-10-19T23:39:45.768Z,8.35
2018-10-19T23:42:14.621Z,8.28
2018-10-19T23:44:43.212Z,8.25
2018-10-19T23:47:11.864Z,8.47
2018-10-19T23:49:40.407Z,8.75
2018-10-19T23:52:08.957Z,8.79
2018-10-19T23:54:37.557Z,8.58
2018-10-19T23:57:06.185Z,8.42
2018-10-19T23:59:34.786Z,8.62
